createdAt,value
2019-03-17T00:00:04.888Z,4.51
2019-03-17T00:02:35.328Z,4.51
2019-03-17T00:05:06.610Z,4.50
2019-03-17T00:07:36.942Z,4.47
2019-03-17T00:10:07.903Z,4.41
2019-03-17T00:12:38.768Z,4.36
2019-03-17T00:15:09.622Z,4.30
2019-03-17T00:17:41.870Z,4.24
2019-03-17T00:20:12.546Z,4.05
2019-03-17T00:22:43.300Z,3.93
2019-03-17T00:25:14.069Z,3.71
2019-03-17T00:27:44.909Z,3.71
2019-03-17T00:30:15.770Z,3.85
2019-03-17T00:32:46.642Z,3.77
2019-03-17T00:35:17.393Z,3.62
2019-03-17T00:37:48.963Z,3.53
2019-03-17T00:40:19.700Z,3.54
2019-03-17T00:42:50.456Z,3.51
2019-03-17T00:45:21.330Z,3.45
2019-03-17T00:47:52.082Z,3.40
2019-03-17T00:50:22.737Z,3.32
2019-03-17T00:52:53.268Z,3.24
2019-03-17T00:55:24.138Z,3.04
2019-03-17T00:57:54.893Z,2.90
2019-03-17T01:00:25.631Z,2.83
2019-03-17T01:02:56.300Z,2.91
2019-03-17T01:05:27.154Z,2.82
2019-03-17T01:07:57.940Z,2.82
2019-03-17T01:10:28.648Z,2.88
2019-03-17T01:12:59.520Z,3.05
2019-03-17T01:15:30.375Z,3.05
2019-03-17T01:18:01.130Z,3.09
2019-03-17T01:20:31.780Z,3.13
2019-03-17T01:23:02.516Z,3.31
2019-03-17T01:25:33.289Z,3.45
2019-03-17T01:28:04.045Z,3.55
2019-03-17T01:30:34.693Z,3.65
2019-03-17T01:33:05.548Z,3.65
2019-03-17T01:35:36.292Z,3.72
2019-03-17T01:38:08.079Z,3.74
2019-03-17T01:40:38.837Z,3.76
2019-03-17T01:43:09.590Z,3.81
2019-03-17T01:45:40.444Z,3.87
2019-03-17T01:48:11.233Z,3.79
2019-03-17T01:50:41.946Z,3.73
2019-03-17T01:53:12.688Z,3.69
2019-03-17T01:55:43.563Z,3.69
2019-03-17T01:58:14.314Z,3.65
2019-03-17T02:00:44.967Z,3.65
2019-03-17T02:03:15.721Z,3.69
2019-03-17T02:05:46.478Z,3.70
2019-03-17T02:08:17.229Z,3.71
2019-03-17T02:10:47.860Z,3.63
2019-03-17T02:13:18.734Z,3.76
2019-03-17T02:15:49.488Z,3.80
2019-03-17T02:18:20.243Z,3.81
2019-03-17T02:20:51.099Z,3.81
2019-03-17T02:23:21.954Z,3.86
2019-03-17T02:25:52.709Z,3.82
2019-03-17T02:28:23.361Z,3.79
2019-03-17T02:30:54.215Z,3.79
2019-03-17T02:33:24.984Z,3.81
2019-03-17T02:35:55.751Z,3.79
2019-03-17T02:38:27.707Z,3.80
2019-03-17T02:40:58.563Z,3.75
2019-03-17T02:43:29.524Z,3.73
2019-03-17T02:46:02.983Z,3.78
2019-03-17T02:48:32.467Z,3.73
2019-03-17T02:51:03.321Z,3.65
2019-03-17T02:53:34.069Z,3.68
2019-03-17T02:56:04.709Z,3.69
2019-03-17T02:58:35.469Z,3.75
2019-03-17T03:01:06.333Z,3.83
2019-03-17T03:03:36.945Z,3.73
2019-03-17T03:06:07.841Z,3.76
2019-03-17T03:08:38.578Z,3.73
2019-03-17T03:11:09.452Z,3.77
2019-03-17T03:13:40.222Z,3.72
2019-03-17T03:16:10.841Z,3.70
2019-03-17T03:18:41.611Z,3.79
2019-03-17T03:21:12.466Z,3.76
2019-03-17T03:23:43.221Z,3.79
2019-03-17T03:26:13.872Z,3.75
2019-03-17T03:28:44.607Z,3.72
2019-03-17T03:31:15.353Z,3.69
2019-03-17T03:33:46.035Z,3.71
2019-03-17T03:36:16.687Z,3.69
2019-03-17T03:38:48.338Z,3.76
2019-03-17T03:41:18.897Z,3.79
2019-03-17T03:43:49.866Z,3.81
2019-03-17T03:46:20.622Z,3.81
2019-03-17T03:48:51.372Z,3.83
2019-03-17T03:51:21.903Z,3.82
2019-03-17T03:53:52.778Z,3.84
2019-03-17T03:56:23.531Z,3.85
2019-03-17T03:58:54.288Z,3.83
2019-03-17T04:01:24.937Z,3.86
2019-03-17T04:03:55.794Z,3.90
2019-03-17T04:06:27.236Z,4.00
2019-03-17T04:08:58.022Z,4.08
2019-03-17T04:11:28.775Z,4.10
2019-03-17T04:13:59.522Z,4.18
2019-03-17T04:16:30.380Z,4.32
2019-03-17T04:19:01.117Z,4.29
2019-03-17T04:21:31.770Z,4.29
2019-03-17T04:24:01.734Z,4.23
2019-03-17T04:26:32.253Z,4.33
2019-03-17T04:29:02.907Z,4.38
2019-03-17T04:31:32.875Z,4.41
2019-03-17T04:34:03.406Z,4.48
2019-03-17T04:36:40.153Z,4.46
2019-03-17T04:39:06.869Z,4.50
2019-03-17T04:41:37.203Z,4.54
2019-03-17T04:44:20.046Z,4.56
2019-03-17T04:46:40.430Z,4.54
2019-03-17T04:49:11.284Z,4.57
2019-03-17T04:51:42.060Z,4.60
2019-03-17T04:54:12.796Z,4.65
2019-03-17T04:56:43.548Z,4.71
2019-03-17T04:59:14.420Z,4.75
2019-03-17T05:01:45.176Z,4.80
2019-03-17T05:04:15.807Z,4.78
2019-03-17T05:06:52.762Z,4.87
2019-03-17T05:09:18.662Z,5.05
2019-03-17T05:11:49.418Z,5.13
2019-03-17T05:14:20.170Z,5.22
2019-03-17T05:16:50.824Z,5.29
2019-03-17T05:19:21.683Z,5.37
2019-03-17T05:21:52.435Z,5.29
2019-03-17T05:24:23.186Z,5.33
2019-03-17T05:26:54.043Z,5.38
2019-03-17T05:29:24.902Z,5.28
2019-03-17T05:31:55.656Z,5.31
2019-03-17T05:34:26.303Z,5.43
2019-03-17T05:37:05.933Z,5.24
2019-03-17T05:39:30.572Z,5.15
2019-03-17T05:42:01.325Z,5.23
2019-03-17T05:44:32.182Z,5.28
2019-03-17T05:47:03.042Z,5.46
2019-03-17T05:49:33.795Z,5.50
2019-03-17T05:52:04.429Z,5.62
2019-03-17T05:54:34.607Z,5.80
2019-03-17T05:57:05.135Z,5.95
2019-03-17T05:59:35.787Z,5.95
2019-03-17T06:02:06.642Z,6.01
2019-03-17T06:04:37.482Z,6.28
2019-03-17T06:07:18.018Z,6.07
2019-03-17T06:09:40.232Z,6.24
2019-03-17T06:12:11.091Z,6.36
2019-03-17T06:14:41.946Z,6.23
2019-03-17T06:17:12.702Z,6.13
2019-03-17T06:19:43.351Z,6.25
2019-03-17T06:22:14.091Z,6.31
2019-03-17T06:24:44.861Z,6.53
2019-03-17T06:27:15.616Z,6.66
2019-03-17T06:29:46.246Z,6.61
2019-03-17T06:32:17.120Z,6.71
2019-03-17T06:34:47.875Z,6.88
2019-03-17T06:37:30.194Z,6.99
2019-03-17T06:39:51.633Z,6.99
2019-03-17T06:42:22.386Z,6.84
2019-03-17T06:44:53.345Z,6.97
2019-03-17T06:47:24.096Z,7.27
2019-03-17T06:49:54.836Z,7.12
2019-03-17T06:52:25.490Z,7.14
2019-03-17T06:54:56.358Z,7.01
2019-03-17T06:57:27.880Z,6.78
2019-03-17T07:00:00.526Z,6.91
2019-03-17T07:02:31.281Z,6.75
2019-03-17T07:05:01.919Z,6.77
2019-03-17T07:07:43.305Z,6.91
2019-03-17T07:10:06.204Z,6.96
2019-03-17T07:12:37.057Z,6.74
2019-03-17T07:15:10.053Z,6.95
2019-03-17T07:17:40.816Z,7.08
2019-03-17T07:20:13.721Z,7.02
2019-03-17T07:22:44.358Z,6.73
2019-03-17T07:25:15.123Z,6.80
2019-03-17T07:27:45.772Z,6.77
2019-03-17T07:30:17.345Z,6.61
2019-03-17T07:32:47.776Z,6.42
2019-03-17T07:35:17.853Z,6.70
2019-03-17T07:37:56.873Z,6.66
2019-03-17T07:40:21.383Z,7.03
2019-03-17T07:42:52.140Z,7.09
2019-03-17T07:45:21.959Z,7.11
2019-03-17T07:47:52.411Z,7.17
2019-03-17T07:50:29.052Z,7.28
2019-03-17T07:53:01.392Z,7.29
2019-03-17T07:55:32.046Z,7.28
2019-03-17T07:58:02.780Z,7.38
2019-03-17T08:00:33.657Z,7.44
2019-03-17T08:03:04.408Z,7.62
2019-03-17T08:05:35.064Z,7.56
2019-03-17T08:08:09.592Z,7.35
2019-03-17T08:10:37.998Z,7.38
2019-03-17T08:13:08.752Z,7.50
2019-03-17T08:15:39.511Z,7.56
2019-03-17T08:18:10.362Z,7.62
2019-03-17T08:20:41.114Z,7.47
2019-03-17T08:23:11.956Z,7.57
2019-03-17T08:25:41.826Z,7.40
2019-03-17T08:28:12.336Z,7.31
2019-03-17T08:30:52.491Z,7.25
2019-03-17T08:33:14.170Z,7.05
2019-03-17T08:35:45.134Z,7.08
2019-03-17T08:38:21.787Z,7.03
2019-03-17T08:40:49.213Z,6.86
2019-03-17T08:43:20.048Z,6.79
2019-03-17T08:45:50.912Z,6.85
2019-03-17T08:48:21.455Z,6.83
2019-03-17T08:50:53.829Z,6.73
2019-03-17T08:53:24.705Z,6.77
2019-03-17T08:55:55.484Z,6.78
2019-03-17T08:58:26.292Z,6.74
2019-03-17T09:00:56.859Z,6.73
2019-03-17T09:03:27.714Z,6.77
2019-03-17T09:05:58.350Z,6.95
2019-03-17T09:08:34.862Z,6.98
2019-03-17T09:11:00.694Z,7.05
2019-03-17T09:13:30.439Z,7.01
2019-03-17T09:16:00.959Z,6.79
2019-03-17T09:18:31.728Z,6.84
2019-03-17T09:21:02.382Z,7.08
2019-03-17T09:23:33.235Z,7.28
2019-03-17T09:26:03.987Z,7.37
2019-03-17T09:28:39.345Z,7.29
2019-03-17T09:31:10.199Z,7.34
2019-03-17T09:33:41.132Z,7.25
2019-03-17T09:36:11.895Z,7.00
2019-03-17T09:38:47.625Z,7.14
2019-03-17T09:41:15.876Z,7.45
2019-03-17T09:43:46.715Z,7.86
2019-03-17T09:46:17.587Z,7.97
2019-03-17T09:48:48.235Z,8.01
2019-03-17T09:51:18.975Z,8.21
2019-03-17T09:53:49.955Z,8.50
2019-03-17T09:56:19.808Z,8.48
2019-03-17T09:58:50.334Z,8.16
2019-03-17T10:01:21.087Z,8.12
2019-03-17T10:03:51.842Z,8.24
2019-03-17T10:06:22.887Z,8.18
2019-03-17T10:08:59.865Z,8.25
2019-03-17T10:11:25.639Z,8.45
2019-03-17T10:13:56.393Z,8.57
2019-03-17T10:16:27.247Z,8.39
2019-03-17T10:18:58.087Z,8.70
2019-03-17T10:21:28.757Z,8.78
2019-03-17T10:23:59.412Z,8.84
2019-03-17T10:26:30.144Z,8.85
2019-03-17T10:29:01.405Z,8.67
2019-03-17T10:31:32.082Z,8.73
2019-03-17T10:34:02.935Z,8.77
2019-03-17T10:36:33.689Z,8.51
2019-03-17T10:39:12.416Z,8.28
2019-03-17T10:41:40.821Z,8.28
2019-03-17T10:44:11.268Z,8.33
2019-03-17T10:46:41.903Z,8.35
2019-03-17T10:49:12.777Z,8.56
2019-03-17T10:51:43.617Z,8.26
2019-03-17T10:54:17.344Z,8.30
2019-03-17T10:56:48.009Z,8.39
2019-03-17T10:59:18.843Z,8.40
2019-03-17T11:01:49.716Z,8.62
2019-03-17T11:04:19.466Z,8.74
2019-03-17T11:06:50.216Z,8.64
2019-03-17T11:09:25.436Z,8.32
2019-03-17T11:11:53.343Z,8.00
2019-03-17T11:14:23.994Z,7.17
2019-03-17T11:16:53.846Z,7.09
2019-03-17T11:19:25.679Z,7.12
2019-03-17T11:21:56.712Z,7.12
2019-03-17T11:24:27.217Z,7.22
2019-03-17T11:26:58.152Z,7.40
2019-03-17T11:29:28.810Z,7.70
2019-03-17T11:31:59.683Z,7.97
2019-03-17T11:34:30.316Z,8.20
2019-03-17T11:37:01.093Z,8.39
2019-03-17T11:39:37.644Z,8.66
2019-03-17T11:42:05.052Z,8.80
2019-03-17T11:44:35.891Z,8.72
2019-03-17T11:47:08.197Z,8.73
2019-03-17T11:49:38.831Z,8.87
2019-03-17T11:52:09.499Z,8.91
2019-03-17T11:54:40.354Z,9.13
2019-03-17T11:57:11.317Z,9.03
2019-03-17T11:59:41.966Z,9.16
2019-03-17T12:02:25.697Z,8.80
2019-03-17T12:04:51.016Z,8.18
2019-03-17T12:07:21.576Z,7.98
2019-03-17T12:09:51.545Z,7.91
2019-03-17T12:12:21.953Z,7.42
2019-03-17T12:14:52.626Z,7.26
2019-03-17T12:17:22.576Z,7.20
2019-03-17T12:19:53.110Z,7.09
2019-03-17T12:22:23.789Z,6.88
2019-03-17T12:24:54.498Z,6.76
2019-03-17T12:27:24.474Z,6.77
2019-03-17T12:29:54.979Z,6.71
2019-03-17T12:32:25.060Z,6.64
2019-03-17T12:34:55.586Z,6.58
2019-03-17T12:37:25.649Z,6.60
2019-03-17T12:40:02.538Z,6.64
2019-03-17T12:42:28.254Z,6.67
2019-03-17T12:44:59.018Z,6.77
2019-03-17T12:47:29.967Z,6.79
2019-03-17T12:49:59.718Z,6.85
2019-03-17T12:52:30.231Z,7.02
2019-03-17T12:55:00.359Z,7.01
2019-03-17T12:57:30.936Z,7.12
2019-03-17T13:00:01.001Z,7.24
2019-03-17T13:02:31.303Z,7.29
2019-03-17T13:05:01.751Z,7.33
2019-03-17T13:07:31.719Z,7.44
2019-03-17T13:10:14.539Z,7.62
2019-03-17T13:12:34.337Z,7.75
2019-03-17T13:15:05.217Z,7.80
2019-03-17T13:17:35.432Z,8.04
2019-03-17T13:20:15.010Z,8.39
2019-03-17T13:22:45.312Z,8.65
2019-03-17T13:25:15.281Z,8.55
2019-03-17T13:27:45.711Z,8.52
2019-03-17T13:30:17.107Z,8.52
2019-03-17T13:32:47.533Z,8.41
2019-03-17T13:35:17.589Z,8.05
2019-03-17T13:37:48.112Z,7.88
2019-03-17T13:40:29.295Z,7.67
2019-03-17T13:42:54.617Z,7.57
2019-03-17T13:45:25.168Z,7.55
2019-03-17T13:47:55.815Z,7.45
2019-03-17T13:50:25.896Z,7.56
2019-03-17T13:52:56.310Z,7.54
2019-03-17T13:55:26.483Z,7.46
2019-03-17T13:58:01.595Z,7.43
2019-03-17T14:00:31.960Z,7.37
2019-03-17T14:03:02.594Z,7.38
2019-03-17T14:05:39.567Z,7.38
2019-03-17T14:08:11.991Z,7.35
2019-03-17T14:10:42.322Z,7.34
2019-03-17T14:13:12.398Z,7.33
2019-03-17T14:15:42.923Z,7.31
2019-03-17T14:18:12.780Z,7.42
2019-03-17T14:20:43.083Z,7.44
2019-03-17T14:23:13.841Z,7.40
2019-03-17T14:25:44.708Z,7.42
2019-03-17T14:28:15.241Z,7.48
2019-03-17T14:30:45.324Z,7.44
2019-03-17T14:33:15.851Z,7.40
2019-03-17T14:35:46.616Z,7.38
2019-03-17T14:38:17.045Z,7.27
2019-03-17T14:40:53.196Z,7.15
2019-03-17T14:43:19.780Z,7.13
2019-03-17T14:45:50.433Z,7.10
2019-03-17T14:48:21.273Z,7.03
2019-03-17T14:50:51.840Z,6.98
2019-03-17T14:53:21.688Z,6.96
2019-03-17T14:55:52.227Z,6.96
2019-03-17T14:58:22.284Z,6.94
2019-03-17T15:00:52.808Z,6.93
2019-03-17T15:03:23.462Z,6.84
2019-03-17T15:05:54.215Z,6.81
2019-03-17T15:08:24.867Z,6.77
2019-03-17T15:11:05.241Z,6.73
2019-03-17T15:13:27.907Z,6.74
2019-03-17T15:16:03.105Z,6.69
2019-03-17T15:18:30.745Z,6.67
2019-03-17T15:21:04.674Z,6.67
2019-03-17T15:23:35.528Z,6.74
2019-03-17T15:26:06.160Z,6.67
2019-03-17T15:28:36.246Z,6.66
2019-03-17T15:31:11.902Z,6.66
2019-03-17T15:33:41.916Z,6.63
2019-03-17T15:36:12.450Z,6.58
2019-03-17T15:38:43.119Z,6.57
2019-03-17T15:41:18.929Z,6.58
2019-03-17T15:43:47.107Z,6.61
2019-03-17T15:46:17.940Z,6.55
2019-03-17T15:48:49.008Z,6.64
2019-03-17T15:51:22.093Z,6.64
2019-03-17T15:53:52.947Z,6.58
2019-03-17T15:56:23.815Z,6.58
2019-03-17T15:58:54.568Z,6.57
2019-03-17T16:01:25.222Z,6.50
2019-03-17T16:03:55.957Z,6.51
2019-03-17T16:06:27.224Z,6.47
2019-03-17T16:08:57.677Z,6.51
2019-03-17T16:11:31.109Z,6.48
2019-03-17T16:14:00.648Z,6.45
2019-03-17T16:16:31.379Z,6.41
2019-03-17T16:19:02.013Z,6.39
2019-03-17T16:21:33.112Z,6.41
2019-03-17T16:24:03.644Z,6.41
2019-03-17T16:26:34.501Z,6.41
2019-03-17T16:29:04.949Z,6.38
2019-03-17T16:31:34.897Z,6.32
2019-03-17T16:34:05.435Z,6.29
2019-03-17T16:36:36.555Z,6.26
2019-03-17T16:39:07.929Z,6.28
2019-03-17T16:41:43.718Z,6.22
2019-03-17T16:44:12.648Z,6.21
2019-03-17T16:46:42.986Z,6.25
2019-03-17T16:49:14.014Z,6.22
2019-03-17T16:51:44.068Z,6.25
2019-03-17T16:54:14.205Z,6.21
2019-03-17T16:56:44.963Z,6.18
2019-03-17T16:59:15.614Z,6.14
2019-03-17T17:01:54.362Z,6.11
2019-03-17T17:04:27.165Z,6.13
2019-03-17T17:06:58.102Z,6.11
2019-03-17T17:09:28.469Z,6.04
2019-03-17T17:11:58.527Z,6.02
2019-03-17T17:14:29.039Z,5.99
2019-03-17T17:16:59.710Z,6.00
2019-03-17T17:19:30.559Z,5.97
2019-03-17T17:22:01.320Z,5.94
2019-03-17T17:24:32.069Z,5.92
2019-03-17T17:27:02.719Z,5.95
2019-03-17T17:29:33.371Z,5.99
2019-03-17T17:32:04.231Z,6.00
2019-03-17T17:34:34.864Z,6.01
2019-03-17T17:37:06.125Z,5.93
2019-03-17T17:39:36.900Z,5.89
2019-03-17T17:42:09.913Z,5.84
2019-03-17T17:44:40.040Z,5.85
2019-03-17T17:47:10.880Z,5.86
2019-03-17T17:49:41.654Z,5.78
2019-03-17T17:52:12.305Z,5.64
2019-03-17T17:54:43.162Z,5.65
2019-03-17T17:57:13.900Z,5.51
2019-03-17T17:59:44.547Z,5.47
2019-03-17T18:02:14.625Z,5.40
2019-03-17T18:04:45.154Z,5.30
2019-03-17T18:07:15.907Z,5.26
2019-03-17T18:09:46.764Z,5.19
2019-03-17T18:12:21.258Z,5.03
2019-03-17T18:14:49.703Z,4.93
2019-03-17T18:17:20.353Z,4.85
2019-03-17T18:19:51.211Z,4.77
2019-03-17T18:22:21.969Z,4.71
2019-03-17T18:24:52.720Z,4.61
2019-03-17T18:27:23.372Z,4.57
2019-03-17T18:29:54.106Z,4.59
2019-03-17T18:32:24.979Z,4.53
2019-03-17T18:34:55.613Z,4.43
2019-03-17T18:37:25.703Z,4.24
2019-03-17T18:39:56.218Z,4.11
2019-03-17T18:42:33.057Z,3.95
2019-03-17T18:44:59.156Z,3.81
2019-03-17T18:47:30.013Z,3.64
2019-03-17T18:50:00.860Z,3.47
2019-03-17T18:52:31.216Z,3.39
2019-03-17T18:55:01.177Z,3.30
2019-03-17T18:57:31.698Z,3.20
2019-03-17T19:00:04.415Z,3.14
2019-03-17T19:02:34.733Z,3.00
2019-03-17T19:05:05.510Z,2.92
2019-03-17T19:07:35.738Z,2.91
2019-03-17T19:10:08.372Z,2.88
2019-03-17T19:12:45.560Z,2.77
2019-03-17T19:15:24.959Z,2.68
2019-03-17T19:17:55.714Z,2.66
2019-03-17T19:20:26.485Z,2.61
2019-03-17T19:22:57.121Z,2.44
2019-03-17T19:25:27.992Z,2.42
2019-03-17T19:27:59.771Z,2.48
2019-03-17T19:30:30.811Z,2.27
2019-03-17T19:33:01.462Z,2.14
2019-03-17T19:35:32.134Z,2.14
2019-03-17T19:38:02.991Z,2.01
2019-03-17T19:40:33.725Z,1.91
2019-03-17T19:43:04.498Z,1.85
2019-03-17T19:45:35.455Z,1.47
2019-03-17T19:48:06.312Z,1.38
2019-03-17T19:50:37.251Z,1.42
2019-03-17T19:53:10.870Z,1.49
2019-03-17T19:55:41.728Z,1.44
2019-03-17T19:58:12.497Z,1.47
2019-03-17T20:00:43.131Z,1.36
2019-03-17T20:03:14.005Z,1.40
2019-03-17T20:05:44.769Z,1.33
2019-03-17T20:08:15.514Z,1.27
2019-03-17T20:10:46.146Z,1.21
2019-03-17T20:13:17.019Z,1.19
2019-03-17T20:15:47.776Z,1.17
2019-03-17T20:18:18.408Z,1.05
2019-03-17T20:20:48.484Z,1.12
2019-03-17T20:23:21.418Z,1.01
2019-03-17T20:25:51.180Z,0.95
2019-03-17T20:28:21.939Z,0.90
2019-03-17T20:30:52.809Z,0.89
2019-03-17T20:33:23.443Z,0.87
2019-03-17T20:35:53.519Z,0.79
2019-03-17T20:38:24.047Z,0.76
2019-03-17T20:40:53.995Z,0.70
2019-03-17T20:43:34.763Z,0.73
2019-03-17T20:45:57.620Z,0.72
2019-03-17T20:48:28.270Z,0.69
2019-03-17T20:50:59.936Z,0.65
2019-03-17T20:53:30.510Z,0.65
2019-03-17T20:56:01.267Z,0.56
2019-03-17T20:58:32.135Z,0.70
2019-03-17T21:01:03.066Z,0.46
2019-03-17T21:03:33.835Z,0.31
2019-03-17T21:06:04.469Z,0.33
2019-03-17T21:08:35.220Z,0.42
2019-03-17T21:11:05.995Z,0.42
2019-03-17T21:13:46.178Z,0.60
2019-03-17T21:16:08.730Z,0.54
2019-03-17T21:18:39.371Z,0.51
2019-03-17T21:21:10.219Z,0.45
2019-03-17T21:23:40.873Z,0.44
2019-03-17T21:26:11.643Z,0.45
2019-03-17T21:28:42.294Z,0.43
2019-03-17T21:31:13.029Z,0.47
2019-03-17T21:33:43.903Z,0.42
2019-03-17T21:36:14.640Z,0.38
2019-03-17T21:38:45.293Z,0.40
2019-03-17T21:41:17.292Z,0.61
2019-03-17T21:43:58.964Z,0.62
2019-03-17T21:46:21.661Z,0.52
2019-03-17T21:48:52.413Z,0.49
2019-03-17T21:51:23.370Z,0.40
2019-03-17T21:53:54.226Z,0.39
2019-03-17T21:56:25.170Z,0.53
2019-03-17T21:58:55.843Z,0.55
2019-03-17T22:01:26.696Z,0.48
2019-03-17T22:03:57.555Z,0.50
2019-03-17T22:06:28.298Z,0.42
2019-03-17T22:08:59.106Z,0.35
2019-03-17T22:11:30.015Z,0.36
2019-03-17T22:14:11.600Z,0.31
2019-03-17T22:16:32.855Z,0.26
2019-03-17T22:19:06.353Z,0.27
2019-03-17T22:21:37.225Z,0.19
2019-03-17T22:24:07.979Z,0.20
2019-03-17T22:26:38.714Z,0.16
2019-03-17T22:29:09.264Z,0.10
2019-03-17T22:31:40.252Z,0.02
2019-03-17T22:34:10.698Z,-0.02
2019-03-17T22:36:41.424Z,-0.06
2019-03-17T22:39:12.098Z,-0.06
2019-03-17T22:41:42.932Z,-0.07
2019-03-17T22:44:23.919Z,0.05
2019-03-17T22:46:46.807Z,0.18
2019-03-17T22:49:17.663Z,0.35
2019-03-17T22:51:48.399Z,0.50
2019-03-17T22:54:19.066Z,0.66
2019-03-17T22:56:49.938Z,0.75
2019-03-17T22:59:20.682Z,0.84
2019-03-17T23:01:51.433Z,0.74
2019-03-17T23:04:22.496Z,0.64
2019-03-17T23:06:52.819Z,0.67
2019-03-17T23:09:23.592Z,0.56
2019-03-17T23:11:54.346Z,0.56
2019-03-17T23:14:36.107Z,0.66
2019-03-17T23:16:57.386Z,0.55
2019-03-17T23:19:28.141Z,0.56
2019-03-17T23:21:58.894Z,0.51
2019-03-17T23:24:29.854Z,0.46
2019-03-17T23:26:59.810Z,0.40
2019-03-17T23:29:30.338Z,0.39
2019-03-17T23:32:01.197Z,0.47
2019-03-17T23:34:31.946Z,0.46
2019-03-17T23:37:02.690Z,0.44
2019-03-17T23:39:33.557Z,0.37
2019-03-17T23:42:04.312Z,0.32
2019-03-17T23:44:34.962Z,0.36
2019-03-17T23:47:07.538Z,0.33
2019-03-17T23:49:38.314Z,0.25
2019-03-17T23:52:09.046Z,0.16
2019-03-17T23:54:39.801Z,0.06
2019-03-17T23:57:10.674Z,0.08
2019-03-17T23:59:41.434Z,0.08
